Terminal Aerodrome Forecast
Issued by NWS

Home | Current Version | Previous Version | Text Only | Print | Product List | Glossary On
Versions: 1 2 3 4 5 6 7 8 9 10 11 12 13 14 15 16
555
FTUS43 KMQT 052338
TAFCMX
TAF
KCMX 052338Z 0600/0624 10006KT P6SM SCT120
     FM060300 VRB03KT P6SM FEW200
     FM061200 26006KT P6SM FEW200
     FM062000 26010KT P6SM FEW200=

USA.gov is the U.S. government's official web portal to all federal, state and local government web resources and services.